Kiahsville, WV (25534)

6:25 PM EST on January 25, 2015 (GMT -0500)
Near Salt Rock Elementary School | Change Station
CLOSE
Current Station
Personal Weather Station
Location: Salt Rock, WV
Elevation: 627 ft
Nearby Weather Stations

Elev 627 ft 38.32 °N, 82.23 °W | Updated 4 minutes ago

Mostly Cloudy
Mostly Cloudy
40.6 °F
Feels Like 41 °F
N
0.0
Wind Variable Wind from SSW
Gusts 0.0 mph

Today
High -- | Low -- °F
--% Chance of Precip.
Yesterday
High -- | Low -- °F
Precip. -- in
7:39 AM 5:44 PM
Waxing Crescent, 36% visible
Pressure 29.70 in
Visibility 10.0 miles
Clouds Few 8000 ft
Overcast 10000 ft
Windchill 41 °F
Dew Point 38 °F
Humidity 92%
Rainfall 0.06 in
Snow Depth Not available.
UV 0 out of 12
Pollen .10 out of 12
Air Quality Not available.
Flu Activity Not available.
METAR KHTS 252251Z 04005KT 10SM FEW080 OVC100 06/03 A2969 RMK AO2 SLP056 T00610028

More Conditions Fewer Conditions

Pressure 29.70 in
Visibility 10.0 miles
Clouds Few 8000 ft
Overcast 10000 ft
Windchill 41 °F
Dew Point 38 °F
Humidity 92%
Rainfall 0.06 in
Snow Depth Not available.
UV 0 out of 12
Pollen .10 out of 12
Air Quality Not available.
Flu Activity Not available.
METAR KHTS 252251Z 04005KT 10SM FEW080 OVC100 06/03 A2969 RMK AO2 SLP056 T00610028

More Conditions Fewer Conditions

10-Day Weather Forecast

Almanac

Astronomy

Jan. 25, 2015 Rise Set
Actual Time
Civil Twilight
Nautical Twilight
Astronomical Twilight
Moon
Length of Visible Light
Length of Day
Tomorrow will be .
, % of the Moon is Illuminated

Today's Extremes

State Highs State Lows

Community

WunderPhotos

Upload Photos

1,790,088 photos uploaded!

WunderBlogs® & News

Nearby

Air Quality

  Air Quality AQ Index Pollutant
Not available.

Snow Depth

Station Depth Elevation

Earthquake Activity

City Distance Mag. Time & Date
Minimum magnitude displayed is 2.5.

Coastal Water Temperatures

Place Temperature

Nearby Weather Stations